Banner, Kentucky
Current Conditions -  °F | °C
As of 6:35 AM on Tuesday 21 Oct 2014 (Local Time) from KPBX Reporting Station
Overcast Overcast  
Wind Chill: 51°   Ceiling: 6500
Heat Index: 51°   Visibility: 10mi
Dew Point: 48°   Wind: 3mph
Humidity: 89%   Direction: 210°SSW
Pressure: 29.94"   Gusts: NA
Location:  37.61°N, 82.68°W
Report Text: KPBX 211035Z AUTO 21003KT 10SM SCT037 SCT050 OVC065 11/09 A2994 RMK AO2 T01050087
Loading
Personal Weather Stations






























Interactive Weather Map
Tropical Storm Tracking
New forecast layout! Learn more

10-Day Weather Forecast

Advertisements
Track Severe Weather on mobile